sensor_id;sensor_type;location;lat;lon;timestamp;P1;durP1;ratioP1;P2;durP2;ratioP2
72065;SDS011;59939;52.516;13.420;2023-08-07T00:03:02;10.00;;;3.22;;
72065;SDS011;59939;52.516;13.420;2023-08-07T00:06:06;7.75;;;2.80;;
72065;SDS011;59939;52.516;13.420;2023-08-07T00:09:11;7.97;;;2.58;;
72065;SDS011;59939;52.516;13.420;2023-08-07T00:12:15;9.25;;;2.90;;
72065;SDS011;59939;52.516;13.420;2023-08-07T00:15:18;7.85;;;2.97;;
72065;SDS011;59939;52.516;13.420;2023-08-07T00:18:22;7.50;;;3.22;;
72065;SDS011;59939;52.516;13.420;2023-08-07T00:21:26;9.38;;;3.70;;
72065;SDS011;59939;52.516;13.420;2023-08-07T00:24:30;9.25;;;3.53;;
72065;SDS011;59939;52.516;13.420;2023-08-07T00:27:35;9.57;;;3.50;;
72065;SDS011;59939;52.516;13.420;2023-08-07T00:30:39;10.32;;;3.15;;
72065;SDS011;59939;52.516;13.420;2023-08-07T00:33:42;12.65;;;4.18;;
72065;SDS011;59939;52.516;13.420;2023-08-07T00:36:49;10.20;;;3.58;;
72065;SDS011;59939;52.516;13.420;2023-08-07T00:40:01;10.27;;;4.28;;
72065;SDS011;59939;52.516;13.420;2023-08-07T00:43:05;12.38;;;4.28;;
72065;SDS011;59939;52.516;13.420;2023-08-07T00:46:17;13.05;;;4.43;;
72065;SDS011;59939;52.516;13.420;2023-08-07T00:49:35;10.90;;;4.35;;
72065;SDS011;59939;52.516;13.420;2023-08-07T00:52:39;13.27;;;4.38;;
72065;SDS011;59939;52.516;13.420;2023-08-07T00:55:47;13.93;;;3.85;;
72065;SDS011;59939;52.516;13.420;2023-08-07T00:58:53;8.10;;;3.33;;
72065;SDS011;59939;52.516;13.420;2023-08-07T01:01:58;11.02;;;3.00;;
72065;SDS011;59939;52.516;13.420;2023-08-07T01:05:06;10.57;;;3.80;;
72065;SDS011;59939;52.516;13.420;2023-08-07T01:08:16;8.00;;;2.90;;
72065;SDS011;59939;52.516;13.420;2023-08-07T01:11:40;9.77;;;3.47;;
72065;SDS011;59939;52.516;13.420;2023-08-07T01:14:49;10.95;;;3.45;;
72065;SDS011;59939;52.516;13.420;2023-08-07T01:17:53;11.70;;;3.75;;
72065;SDS011;59939;52.516;13.420;2023-08-07T01:21:02;6.35;;;3.03;;
72065;SDS011;59939;52.516;13.420;2023-08-07T01:24:08;11.20;;;3.58;;
72065;SDS011;59939;52.516;13.420;2023-08-07T01:27:19;8.43;;;3.60;;
72065;SDS011;59939;52.516;13.420;2023-08-07T01:30:29;12.10;;;3.35;;
72065;SDS011;59939;52.516;13.420;2023-08-07T01:33:39;6.30;;;2.50;;
72065;SDS011;59939;52.516;13.420;2023-08-07T01:36:47;12.30;;;3.90;;
72065;SDS011;59939;52.516;13.420;2023-08-07T01:39:55;11.93;;;3.67;;
72065;SDS011;59939;52.516;13.420;2023-08-07T01:43:03;6.97;;;2.22;;
72065;SDS011;59939;52.516;13.420;2023-08-07T01:46:06;9.13;;;2.58;;
72065;SDS011;59939;52.516;13.420;2023-08-07T01:49:13;10.73;;;3.25;;
72065;SDS011;59939;52.516;13.420;2023-08-07T01:52:17;8.65;;;3.50;;
72065;SDS011;59939;52.516;13.420;2023-08-07T01:55:28;8.93;;;3.10;;
72065;SDS011;59939;52.516;13.420;2023-08-07T01:58:32;9.52;;;3.47;;
72065;SDS011;59939;52.516;13.420;2023-08-07T02:01:36;7.97;;;2.78;;
72065;SDS011;59939;52.516;13.420;2023-08-07T02:04:40;8.40;;;3.38;;
72065;SDS011;59939;52.516;13.420;2023-08-07T02:07:44;8.80;;;3.03;;
72065;SDS011;59939;52.516;13.420;2023-08-07T02:10:57;11.02;;;3.13;;
72065;SDS011;59939;52.516;13.420;2023-08-07T02:14:00;7.97;;;3.08;;
72065;SDS011;59939;52.516;13.420;2023-08-07T02:17:05;9.88;;;3.78;;
72065;SDS011;59939;52.516;13.420;2023-08-07T02:20:10;13.65;;;3.75;;
72065;SDS011;59939;52.516;13.420;2023-08-07T02:23:14;9.93;;;3.55;;
72065;SDS011;59939;52.516;13.420;2023-08-07T02:26:18;11.98;;;4.90;;
72065;SDS011;59939;52.516;13.420;2023-08-07T02:29:22;9.60;;;3.85;;
72065;SDS011;59939;52.516;13.420;2023-08-07T02:32:27;13.20;;;4.50;;
72065;SDS011;59939;52.516;13.420;2023-08-07T02:35:30;11.70;;;4.57;;
72065;SDS011;59939;52.516;13.420;2023-08-07T02:38:34;11.38;;;4.60;;
72065;SDS011;59939;52.516;13.420;2023-08-07T02:41:39;12.52;;;5.30;;
72065;SDS011;59939;52.516;13.420;2023-08-07T02:44:42;15.32;;;5.22;;
72065;SDS011;59939;52.516;13.420;2023-08-07T02:47:47;18.73;;;7.03;;
72065;SDS011;59939;52.516;13.420;2023-08-07T02:50:56;12.38;;;4.50;;
72065;SDS011;59939;52.516;13.420;2023-08-07T02:54:00;13.15;;;4.78;;
72065;SDS011;59939;52.516;13.420;2023-08-07T02:57:06;14.70;;;5.38;;
72065;SDS011;59939;52.516;13.420;2023-08-07T03:00:13;13.23;;;4.93;;
72065;SDS011;59939;52.516;13.420;2023-08-07T03:03:17;11.82;;;4.40;;
72065;SDS011;59939;52.516;13.420;2023-08-07T03:06:22;19.15;;;5.78;;
72065;SDS011;59939;52.516;13.420;2023-08-07T03:09:29;16.20;;;6.82;;
72065;SDS011;59939;52.516;13.420;2023-08-07T03:12:33;11.98;;;5.15;;
72065;SDS011;59939;52.516;13.420;2023-08-07T03:15:39;11.98;;;4.68;;
72065;SDS011;59939;52.516;13.420;2023-08-07T03:18:57;13.57;;;5.72;;
72065;SDS011;59939;52.516;13.420;2023-08-07T03:22:01;16.90;;;4.97;;
72065;SDS011;59939;52.516;13.420;2023-08-07T03:25:05;17.20;;;5.28;;
72065;SDS011;59939;52.516;13.420;2023-08-07T03:28:23;13.32;;;5.50;;
72065;SDS011;59939;52.516;13.420;2023-08-07T03:31:28;14.75;;;5.20;;
72065;SDS011;59939;52.516;13.420;2023-08-07T03:34:39;18.80;;;6.10;;
72065;SDS011;59939;52.516;13.420;2023-08-07T03:37:44;14.65;;;4.65;;
72065;SDS011;59939;52.516;13.420;2023-08-07T03:40:50;10.82;;;3.78;;
72065;SDS011;59939;52.516;13.420;2023-08-07T03:43:54;18.88;;;6.07;;
72065;SDS011;59939;52.516;13.420;2023-08-07T03:50:29;14.88;;;6.47;;
72065;SDS011;59939;52.516;13.420;2023-08-07T03:53:34;17.15;;;5.10;;
72065;SDS011;59939;52.516;13.420;2023-08-07T03:56:38;17.48;;;7.00;;
72065;SDS011;59939;52.516;13.420;2023-08-07T03:59:44;11.05;;;4.50;;
72065;SDS011;59939;52.516;13.420;2023-08-07T04:02:56;14.13;;;5.60;;
72065;SDS011;59939;52.516;13.420;2023-08-07T04:06:08;18.35;;;6.22;;
72065;SDS011;59939;52.516;13.420;2023-08-07T04:09:14;11.52;;;4.68;;
72065;SDS011;59939;52.516;13.420;2023-08-07T04:12:17;15.55;;;6.70;;
72065;SDS011;59939;52.516;13.420;2023-08-07T04:15:22;13.10;;;4.68;;
72065;SDS011;59939;52.516;13.420;2023-08-07T04:18:25;13.70;;;4.85;;
72065;SDS011;59939;52.516;13.420;2023-08-07T04:21:32;11.27;;;4.43;;
72065;SDS011;59939;52.516;13.420;2023-08-07T04:24:38;13.93;;;4.82;;
72065;SDS011;59939;52.516;13.420;2023-08-07T04:27:42;11.23;;;4.53;;
72065;SDS011;59939;52.516;13.420;2023-08-07T04:30:48;12.98;;;5.15;;
72065;SDS011;59939;52.516;13.420;2023-08-07T04:33:53;14.15;;;4.57;;
72065;SDS011;59939;52.516;13.420;2023-08-07T04:36:57;15.75;;;5.35;;
72065;SDS011;59939;52.516;13.420;2023-08-07T04:40:03;14.30;;;5.47;;
72065;SDS011;59939;52.516;13.420;2023-08-07T04:43:10;19.02;;;5.35;;
72065;SDS011;59939;52.516;13.420;2023-08-07T04:46:14;11.20;;;4.70;;
72065;SDS011;59939;52.516;13.420;2023-08-07T04:49:20;12.57;;;5.18;;
72065;SDS011;59939;52.516;13.420;2023-08-07T04:52:25;9.88;;;3.60;;
72065;SDS011;59939;52.516;13.420;2023-08-07T04:55:36;11.85;;;3.72;;
72065;SDS011;59939;52.516;13.420;2023-08-07T04:58:40;11.85;;;4.38;;
72065;SDS011;59939;52.516;13.420;2023-08-07T05:01:44;11.68;;;4.13;;
72065;SDS011;59939;52.516;13.420;2023-08-07T05:09:47;7.57;;;2.88;;
72065;SDS011;59939;52.516;13.420;2023-08-07T05:18:23;10.80;;;3.20;;
72065;SDS011;59939;52.516;13.420;2023-08-07T05:29:46;11.88;;;3.95;;
72065;SDS011;59939;52.516;13.420;2023-08-07T05:46:09;11.60;;;3.88;;
72065;SDS011;59939;52.516;13.420;2023-08-07T05:49:58;10.68;;;3.92;;
72065;SDS011;59939;52.516;13.420;2023-08-07T05:53:17;8.13;;;2.90;;
72065;SDS011;59939;52.516;13.420;2023-08-07T06:13:22;8.18;;;3.10;;
72065;SDS011;59939;52.516;13.420;2023-08-07T06:16:38;8.65;;;3.22;;
72065;SDS011;59939;52.516;13.420;2023-08-07T06:19:42;10.80;;;3.88;;
72065;SDS011;59939;52.516;13.420;2023-08-07T06:22:46;10.98;;;3.72;;
72065;SDS011;59939;52.516;13.420;2023-08-07T06:25:57;5.47;;;2.08;;
72065;SDS011;59939;52.516;13.420;2023-08-07T06:29:02;6.57;;;2.58;;
72065;SDS011;59939;52.516;13.420;2023-08-07T06:35:51;10.75;;;3.25;;
72065;SDS011;59939;52.516;13.420;2023-08-07T06:38:56;7.90;;;3.17;;
72065;SDS011;59939;52.516;13.420;2023-08-07T06:42:08;5.88;;;2.50;;
72065;SDS011;59939;52.516;13.420;2023-08-07T06:45:20;8.98;;;2.55;;
72065;SDS011;59939;52.516;13.420;2023-08-07T06:48:24;7.18;;;2.70;;
72065;SDS011;59939;52.516;13.420;2023-08-07T06:51:35;8.50;;;3.03;;
72065;SDS011;59939;52.516;13.420;2023-08-07T06:54:41;9.65;;;2.92;;
72065;SDS011;59939;52.516;13.420;2023-08-07T06:57:44;7.50;;;2.40;;
72065;SDS011;59939;52.516;13.420;2023-08-07T07:00:49;8.52;;;3.60;;
72065;SDS011;59939;52.516;13.420;2023-08-07T07:03:53;7.75;;;3.20;;
72065;SDS011;59939;52.516;13.420;2023-08-07T07:06:59;7.07;;;2.25;;
72065;SDS011;59939;52.516;13.420;2023-08-07T07:10:10;8.35;;;3.53;;
72065;SDS011;59939;52.516;13.420;2023-08-07T07:13:14;4.47;;;1.92;;
72065;SDS011;59939;52.516;13.420;2023-08-07T07:16:19;7.20;;;2.40;;
72065;SDS011;59939;52.516;13.420;2023-08-07T07:19:25;6.75;;;2.45;;
72065;SDS011;59939;52.516;13.420;2023-08-07T07:22:28;6.47;;;2.53;;
72065;SDS011;59939;52.516;13.420;2023-08-07T07:25:32;4.20;;;1.85;;
72065;SDS011;59939;52.516;13.420;2023-08-07T07:28:37;6.88;;;2.05;;
72065;SDS011;59939;52.516;13.420;2023-08-07T07:35:15;11.75;;;2.47;;
72065;SDS011;59939;52.516;13.420;2023-08-07T07:38:20;4.95;;;1.80;;
72065;SDS011;59939;52.516;13.420;2023-08-07T07:41:31;7.05;;;2.50;;
72065;SDS011;59939;52.516;13.420;2023-08-07T07:44:37;5.82;;;1.80;;
72065;SDS011;59939;52.516;13.420;2023-08-07T07:47:43;5.25;;;2.30;;
72065;SDS011;59939;52.516;13.420;2023-08-07T07:50:48;5.80;;;2.17;;
72065;SDS011;59939;52.516;13.420;2023-08-07T07:53:54;5.47;;;2.05;;
72065;SDS011;59939;52.516;13.420;2023-08-07T07:57:10;4.78;;;1.92;;
72065;SDS011;59939;52.516;13.420;2023-08-07T08:00:17;9.48;;;2.53;;
72065;SDS011;59939;52.516;13.420;2023-08-07T08:03:23;6.30;;;1.70;;
72065;SDS011;59939;52.516;13.420;2023-08-07T08:06:28;7.30;;;2.38;;
72065;SDS011;59939;52.516;13.420;2023-08-07T08:09:39;6.97;;;2.03;;
72065;SDS011;59939;52.516;13.420;2023-08-07T08:12:43;6.50;;;2.72;;
72065;SDS011;59939;52.516;13.420;2023-08-07T08:15:47;6.20;;;2.10;;
72065;SDS011;59939;52.516;13.420;2023-08-07T08:18:54;8.50;;;2.33;;
72065;SDS011;59939;52.516;13.420;2023-08-07T08:21:58;5.35;;;2.38;;
72065;SDS011;59939;52.516;13.420;2023-08-07T08:25:01;5.13;;;1.70;;
72065;SDS011;59939;52.516;13.420;2023-08-07T08:28:06;5.93;;;2.53;;
72065;SDS011;59939;52.516;13.420;2023-08-07T08:31:11;3.58;;;1.83;;
72065;SDS011;59939;52.516;13.420;2023-08-07T08:34:15;7.32;;;2.45;;
72065;SDS011;59939;52.516;13.420;2023-08-07T08:37:26;5.63;;;2.22;;
72065;SDS011;59939;52.516;13.420;2023-08-07T08:40:30;5.85;;;2.97;;
72065;SDS011;59939;52.516;13.420;2023-08-07T08:43:36;6.72;;;2.78;;
72065;SDS011;59939;52.516;13.420;2023-08-07T08:46:42;10.63;;;2.83;;
72065;SDS011;59939;52.516;13.420;2023-08-07T08:49:47;9.43;;;2.80;;
72065;SDS011;59939;52.516;13.420;2023-08-07T08:53:05;13.80;;;2.08;;
72065;SDS011;59939;52.516;13.420;2023-08-07T08:56:10;7.93;;;2.97;;
72065;SDS011;59939;52.516;13.420;2023-08-07T08:59:15;8.13;;;2.63;;
72065;SDS011;59939;52.516;13.420;2023-08-07T09:02:31;3.58;;;1.90;;
72065;SDS011;59939;52.516;13.420;2023-08-07T09:05:35;2.33;;;1.50;;
72065;SDS011;59939;52.516;13.420;2023-08-07T09:08:40;5.82;;;2.58;;
72065;SDS011;59939;52.516;13.420;2023-08-07T09:11:45;4.30;;;1.60;;
72065;SDS011;59939;52.516;13.420;2023-08-07T09:14:54;5.88;;;2.53;;
72065;SDS011;59939;52.516;13.420;2023-08-07T09:18:00;5.30;;;2.22;;
72065;SDS011;59939;52.516;13.420;2023-08-07T09:21:05;6.55;;;2.00;;
72065;SDS011;59939;52.516;13.420;2023-08-07T09:24:09;8.77;;;2.22;;
72065;SDS011;59939;52.516;13.420;2023-08-07T09:27:28;5.88;;;2.20;;
72065;SDS011;59939;52.516;13.420;2023-08-07T09:30:32;5.85;;;2.13;;
72065;SDS011;59939;52.516;13.420;2023-08-07T09:33:38;5.90;;;1.70;;
72065;SDS011;59939;52.516;13.420;2023-08-07T09:36:42;6.38;;;2.10;;
72065;SDS011;59939;52.516;13.420;2023-08-07T09:39:48;4.38;;;1.73;;
72065;SDS011;59939;52.516;13.420;2023-08-07T09:42:54;5.97;;;2.55;;
72065;SDS011;59939;52.516;13.420;2023-08-07T09:46:05;2.38;;;1.45;;
72065;SDS011;59939;52.516;13.420;2023-08-07T09:49:09;6.13;;;1.80;;
72065;SDS011;59939;52.516;13.420;2023-08-07T09:52:14;7.97;;;2.13;;
72065;SDS011;59939;52.516;13.420;2023-08-07T09:55:18;7.50;;;2.30;;
72065;SDS011;59939;52.516;13.420;2023-08-07T09:58:23;5.95;;;1.90;;
72065;SDS011;59939;52.516;13.420;2023-08-07T10:01:42;6.55;;;2.30;;
72065;SDS011;59939;52.516;13.420;2023-08-07T10:04:48;5.13;;;2.10;;
72065;SDS011;59939;52.516;13.420;2023-08-07T10:07:56;8.38;;;2.17;;
72065;SDS011;59939;52.516;13.420;2023-08-07T10:11:00;4.70;;;1.88;;
72065;SDS011;59939;52.516;13.420;2023-08-07T10:14:17;9.10;;;1.88;;
72065;SDS011;59939;52.516;13.420;2023-08-07T10:17:21;4.88;;;2.15;;
72065;SDS011;59939;52.516;13.420;2023-08-07T10:20:26;4.07;;;1.85;;
72065;SDS011;59939;52.516;13.420;2023-08-07T10:23:33;5.38;;;1.65;;
72065;SDS011;59939;52.516;13.420;2023-08-07T10:26:39;4.22;;;1.60;;
72065;SDS011;59939;52.516;13.420;2023-08-07T10:29:45;3.38;;;1.70;;
72065;SDS011;59939;52.516;13.420;2023-08-07T10:32:49;8.95;;;2.03;;
72065;SDS011;59939;52.516;13.420;2023-08-07T10:35:54;3.15;;;1.58;;
72065;SDS011;59939;52.516;13.420;2023-08-07T10:39:07;2.78;;;1.67;;
72065;SDS011;59939;52.516;13.420;2023-08-07T10:42:14;3.10;;;1.38;;
72065;SDS011;59939;52.516;13.420;2023-08-07T10:45:18;4.78;;;1.70;;
72065;SDS011;59939;52.516;13.420;2023-08-07T10:48:24;2.42;;;1.42;;
72065;SDS011;59939;52.516;13.420;2023-08-07T10:51:30;5.00;;;1.92;;
72065;SDS011;59939;52.516;13.420;2023-08-07T10:54:37;3.47;;;1.15;;
72065;SDS011;59939;52.516;13.420;2023-08-07T10:57:49;6.40;;;1.75;;
72065;SDS011;59939;52.516;13.420;2023-08-07T11:04:19;5.38;;;1.60;;
72065;SDS011;59939;52.516;13.420;2023-08-07T11:07:25;7.05;;;2.13;;
72065;SDS011;59939;52.516;13.420;2023-08-07T11:10:29;7.40;;;1.95;;
72065;SDS011;59939;52.516;13.420;2023-08-07T11:13:33;5.88;;;1.80;;
72065;SDS011;59939;52.516;13.420;2023-08-07T11:16:37;7.75;;;2.97;;
72065;SDS011;59939;52.516;13.420;2023-08-07T11:19:41;8.68;;;3.22;;
72065;SDS011;59939;52.516;13.420;2023-08-07T11:22:45;8.07;;;2.72;;
72065;SDS011;59939;52.516;13.420;2023-08-07T11:25:52;11.02;;;2.67;;
72065;SDS011;59939;52.516;13.420;2023-08-07T11:28:56;11.32;;;3.00;;
72065;SDS011;59939;52.516;13.420;2023-08-07T11:32:00;11.13;;;2.90;;
72065;SDS011;59939;52.516;13.420;2023-08-07T11:35:18;7.88;;;2.08;;
72065;SDS011;59939;52.516;13.420;2023-08-07T11:38:29;10.25;;;2.60;;
72065;SDS011;59939;52.516;13.420;2023-08-07T11:41:40;5.43;;;2.05;;
72065;SDS011;59939;52.516;13.420;2023-08-07T11:44:52;5.35;;;1.77;;
72065;SDS011;59939;52.516;13.420;2023-08-07T11:47:55;5.85;;;1.73;;
72065;SDS011;59939;52.516;13.420;2023-08-07T11:51:00;3.70;;;1.80;;
72065;SDS011;59939;52.516;13.420;2023-08-07T11:54:04;11.98;;;2.60;;
72065;SDS011;59939;52.516;13.420;2023-08-07T11:57:17;9.65;;;2.80;;
72065;SDS011;59939;52.516;13.420;2023-08-07T12:00:24;4.82;;;2.00;;
72065;SDS011;59939;52.516;13.420;2023-08-07T12:03:37;8.18;;;2.20;;
72065;SDS011;59939;52.516;13.420;2023-08-07T12:06:53;4.28;;;1.70;;
72065;SDS011;59939;52.516;13.420;2023-08-07T12:10:02;7.40;;;2.17;;
72065;SDS011;59939;52.516;13.420;2023-08-07T12:17:42;9.15;;;2.75;;
72065;SDS011;59939;52.516;13.420;2023-08-07T12:39:02;10.48;;;2.35;;
72065;SDS011;59939;52.516;13.420;2023-08-07T12:46:54;9.55;;;2.58;;
72065;SDS011;59939;52.516;13.420;2023-08-07T12:49:59;8.90;;;2.40;;
72065;SDS011;59939;52.516;13.420;2023-08-07T12:57:58;11.10;;;2.20;;
72065;SDS011;59939;52.516;13.420;2023-08-07T13:01:49;10.70;;;2.72;;
72065;SDS011;59939;52.516;13.420;2023-08-07T13:06:11;13.68;;;2.40;;
72065;SDS011;59939;52.516;13.420;2023-08-07T13:09:34;6.63;;;1.98;;
72065;SDS011;59939;52.516;13.420;2023-08-07T13:12:57;7.93;;;2.03;;
72065;SDS011;59939;52.516;13.420;2023-08-07T13:24:33;6.78;;;1.83;;
72065;SDS011;59939;52.516;13.420;2023-08-07T13:27:53;5.63;;;2.40;;
72065;SDS011;59939;52.516;13.420;2023-08-07T13:31:48;7.38;;;2.13;;
72065;SDS011;59939;52.516;13.420;2023-08-07T13:34:55;7.53;;;2.03;;
72065;SDS011;59939;52.516;13.420;2023-08-07T13:38:07;7.05;;;2.22;;
72065;SDS011;59939;52.516;13.420;2023-08-07T13:41:12;8.07;;;2.00;;
72065;SDS011;59939;52.516;13.420;2023-08-07T13:44:26;11.27;;;2.40;;
72065;SDS011;59939;52.516;13.420;2023-08-07T13:47:33;9.60;;;1.90;;
72065;SDS011;59939;52.516;13.420;2023-08-07T13:58:53;10.45;;;2.42;;
72065;SDS011;59939;52.516;13.420;2023-08-07T14:19:24;10.73;;;2.20;;
72065;SDS011;59939;52.516;13.420;2023-08-07T14:58:55;9.32;;;2.75;;
72065;SDS011;59939;52.516;13.420;2023-08-07T15:01:59;11.23;;;2.40;;
72065;SDS011;59939;52.516;13.420;2023-08-07T15:05:08;10.02;;;2.47;;
72065;SDS011;59939;52.516;13.420;2023-08-07T15:17:35;4.53;;;1.75;;
72065;SDS011;59939;52.516;13.420;2023-08-07T15:21:12;10.23;;;2.53;;
72065;SDS011;59939;52.516;13.420;2023-08-07T15:24:26;7.15;;;2.10;;
72065;SDS011;59939;52.516;13.420;2023-08-07T15:36:37;11.43;;;2.38;;
72065;SDS011;59939;52.516;13.420;2023-08-07T15:48:07;13.98;;;3.25;;
72065;SDS011;59939;52.516;13.420;2023-08-07T15:51:11;14.32;;;2.35;;
72065;SDS011;59939;52.516;13.420;2023-08-07T15:54:14;7.72;;;1.60;;
72065;SDS011;59939;52.516;13.420;2023-08-07T15:57:21;11.30;;;2.95;;
72065;SDS011;59939;52.516;13.420;2023-08-07T16:00:24;8.50;;;2.10;;
72065;SDS011;59939;52.516;13.420;2023-08-07T16:03:28;10.50;;;2.28;;
72065;SDS011;59939;52.516;13.420;2023-08-07T16:06:39;10.02;;;2.25;;
72065;SDS011;59939;52.516;13.420;2023-08-07T16:09:46;8.00;;;2.25;;
72065;SDS011;59939;52.516;13.420;2023-08-07T16:12:51;7.40;;;2.30;;
72065;SDS011;59939;52.516;13.420;2023-08-07T16:15:55;6.82;;;1.80;;
72065;SDS011;59939;52.516;13.420;2023-08-07T16:18:59;7.75;;;2.33;;
72065;SDS011;59939;52.516;13.420;2023-08-07T16:22:03;5.85;;;1.77;;
72065;SDS011;59939;52.516;13.420;2023-08-07T16:25:21;11.55;;;2.50;;
72065;SDS011;59939;52.516;13.420;2023-08-07T16:28:25;5.65;;;1.80;;
72065;SDS011;59939;52.516;13.420;2023-08-07T16:31:29;10.70;;;2.65;;
72065;SDS011;59939;52.516;13.420;2023-08-07T16:34:33;8.65;;;2.25;;
72065;SDS011;59939;52.516;13.420;2023-08-07T16:37:37;11.90;;;1.77;;
72065;SDS011;59939;52.516;13.420;2023-08-07T16:40:41;7.35;;;2.00;;
72065;SDS011;59939;52.516;13.420;2023-08-07T16:43:45;12.65;;;2.83;;
72065;SDS011;59939;52.516;13.420;2023-08-07T16:46:48;11.52;;;2.47;;
72065;SDS011;59939;52.516;13.420;2023-08-07T16:49:52;7.65;;;1.92;;
72065;SDS011;59939;52.516;13.420;2023-08-07T16:52:59;6.63;;;2.00;;
72065;SDS011;59939;52.516;13.420;2023-08-07T16:56:04;7.32;;;1.80;;
72065;SDS011;59939;52.516;13.420;2023-08-07T16:59:08;14.35;;;2.70;;
72065;SDS011;59939;52.516;13.420;2023-08-07T17:02:13;6.55;;;1.95;;
72065;SDS011;59939;52.516;13.420;2023-08-07T17:05:18;8.68;;;2.30;;
72065;SDS011;59939;52.516;13.420;2023-08-07T17:08:24;10.07;;;2.00;;
72065;SDS011;59939;52.516;13.420;2023-08-07T17:11:28;9.57;;;2.92;;
72065;SDS011;59939;52.516;13.420;2023-08-07T17:14:34;9.27;;;2.03;;
72065;SDS011;59939;52.516;13.420;2023-08-07T17:17:38;9.30;;;2.10;;
72065;SDS011;59939;52.516;13.420;2023-08-07T17:20:45;6.45;;;2.03;;
72065;SDS011;59939;52.516;13.420;2023-08-07T17:23:50;5.78;;;2.30;;
72065;SDS011;59939;52.516;13.420;2023-08-07T17:26:54;7.20;;;1.83;;
72065;SDS011;59939;52.516;13.420;2023-08-07T17:30:00;7.35;;;2.22;;
72065;SDS011;59939;52.516;13.420;2023-08-07T17:33:04;7.93;;;2.00;;
72065;SDS011;59939;52.516;13.420;2023-08-07T17:36:11;4.20;;;1.80;;
72065;SDS011;59939;52.516;13.420;2023-08-07T17:39:16;3.70;;;1.63;;
72065;SDS011;59939;52.516;13.420;2023-08-07T17:42:20;9.93;;;2.20;;
72065;SDS011;59939;52.516;13.420;2023-08-07T17:45:38;8.77;;;2.00;;
72065;SDS011;59939;52.516;13.420;2023-08-07T17:48:42;11.35;;;2.05;;
72065;SDS011;59939;52.516;13.420;2023-08-07T17:51:55;7.30;;;1.98;;
72065;SDS011;59939;52.516;13.420;2023-08-07T17:55:00;8.60;;;1.98;;
72065;SDS011;59939;52.516;13.420;2023-08-07T17:58:07;10.50;;;2.88;;
72065;SDS011;59939;52.516;13.420;2023-08-07T18:01:11;11.40;;;2.20;;
72065;SDS011;59939;52.516;13.420;2023-08-07T18:04:17;6.43;;;1.55;;
72065;SDS011;59939;52.516;13.420;2023-08-07T18:07:24;5.50;;;1.42;;
72065;SDS011;59939;52.516;13.420;2023-08-07T18:10:28;7.50;;;1.52;;
72065;SDS011;59939;52.516;13.420;2023-08-07T18:13:40;8.55;;;2.00;;
72065;SDS011;59939;52.516;13.420;2023-08-07T18:16:43;3.67;;;1.52;;
72065;SDS011;59939;52.516;13.420;2023-08-07T18:19:47;11.30;;;2.47;;
72065;SDS011;59939;52.516;13.420;2023-08-07T18:22:51;9.68;;;2.15;;
72065;SDS011;59939;52.516;13.420;2023-08-07T18:25:55;8.35;;;1.85;;
72065;SDS011;59939;52.516;13.420;2023-08-07T18:29:02;5.53;;;1.90;;
72065;SDS011;59939;52.516;13.420;2023-08-07T18:32:13;9.73;;;1.80;;
72065;SDS011;59939;52.516;13.420;2023-08-07T18:35:17;7.65;;;1.92;;
72065;SDS011;59939;52.516;13.420;2023-08-07T18:38:21;8.63;;;2.17;;
72065;SDS011;59939;52.516;13.420;2023-08-07T18:41:25;7.78;;;2.08;;
72065;SDS011;59939;52.516;13.420;2023-08-07T18:44:29;5.05;;;1.77;;
72065;SDS011;59939;52.516;13.420;2023-08-07T18:47:33;7.05;;;2.03;;
72065;SDS011;59939;52.516;13.420;2023-08-07T18:50:39;7.70;;;2.13;;
72065;SDS011;59939;52.516;13.420;2023-08-07T18:53:46;6.65;;;2.00;;
72065;SDS011;59939;52.516;13.420;2023-08-07T18:56:50;8.00;;;2.10;;
72065;SDS011;59939;52.516;13.420;2023-08-07T18:59:56;6.68;;;2.10;;
72065;SDS011;59939;52.516;13.420;2023-08-07T19:03:03;11.27;;;2.65;;
72065;SDS011;59939;52.516;13.420;2023-08-07T19:06:07;6.63;;;1.63;;
72065;SDS011;59939;52.516;13.420;2023-08-07T19:09:14;5.28;;;1.80;;
72065;SDS011;59939;52.516;13.420;2023-08-07T19:12:19;10.32;;;2.30;;
72065;SDS011;59939;52.516;13.420;2023-08-07T19:15:23;4.95;;;1.85;;
72065;SDS011;59939;52.516;13.420;2023-08-07T19:18:29;6.85;;;1.65;;
72065;SDS011;59939;52.516;13.420;2023-08-07T19:21:40;9.55;;;2.58;;
72065;SDS011;59939;52.516;13.420;2023-08-07T19:24:44;8.10;;;1.95;;
72065;SDS011;59939;52.516;13.420;2023-08-07T19:27:51;13.77;;;2.38;;
72065;SDS011;59939;52.516;13.420;2023-08-07T19:30:55;8.07;;;2.25;;
72065;SDS011;59939;52.516;13.420;2023-08-07T19:34:07;11.07;;;1.98;;
72065;SDS011;59939;52.516;13.420;2023-08-07T19:37:13;9.50;;;2.20;;
72065;SDS011;59939;52.516;13.420;2023-08-07T19:40:17;10.63;;;2.50;;
72065;SDS011;59939;52.516;13.420;2023-08-07T19:43:28;9.55;;;1.58;;
72065;SDS011;59939;52.516;13.420;2023-08-07T19:46:34;9.82;;;2.40;;
72065;SDS011;59939;52.516;13.420;2023-08-07T19:49:41;9.05;;;2.25;;
72065;SDS011;59939;52.516;13.420;2023-08-07T19:52:45;4.40;;;1.73;;
72065;SDS011;59939;52.516;13.420;2023-08-07T19:55:48;5.57;;;1.80;;
72065;SDS011;59939;52.516;13.420;2023-08-07T19:58:55;10.95;;;2.15;;
72065;SDS011;59939;52.516;13.420;2023-08-07T20:02:02;9.95;;;1.95;;
72065;SDS011;59939;52.516;13.420;2023-08-07T20:05:05;6.28;;;1.63;;
72065;SDS011;59939;52.516;13.420;2023-08-07T20:08:16;6.57;;;1.98;;
72065;SDS011;59939;52.516;13.420;2023-08-07T20:11:19;6.03;;;1.92;;
72065;SDS011;59939;52.516;13.420;2023-08-07T20:14:23;8.40;;;1.70;;
72065;SDS011;59939;52.516;13.420;2023-08-07T20:17:27;7.80;;;2.28;;
72065;SDS011;59939;52.516;13.420;2023-08-07T20:20:31;4.07;;;1.42;;
72065;SDS011;59939;52.516;13.420;2023-08-07T20:23:36;6.45;;;1.95;;
72065;SDS011;59939;52.516;13.420;2023-08-07T20:26:40;6.28;;;1.80;;
72065;SDS011;59939;52.516;13.420;2023-08-07T20:29:44;9.02;;;1.98;;
72065;SDS011;59939;52.516;13.420;2023-08-07T20:32:50;8.10;;;1.88;;
72065;SDS011;59939;52.516;13.420;2023-08-07T20:35:54;9.73;;;2.30;;
72065;SDS011;59939;52.516;13.420;2023-08-07T20:38:57;7.05;;;2.00;;
72065;SDS011;59939;52.516;13.420;2023-08-07T20:42:03;7.60;;;1.92;;
72065;SDS011;59939;52.516;13.420;2023-08-07T20:45:07;7.13;;;2.33;;
72065;SDS011;59939;52.516;13.420;2023-08-07T20:48:13;5.38;;;2.08;;
72065;SDS011;59939;52.516;13.420;2023-08-07T20:51:17;8.65;;;2.63;;
72065;SDS011;59939;52.516;13.420;2023-08-07T20:54:28;5.05;;;1.75;;
72065;SDS011;59939;52.516;13.420;2023-08-07T20:57:32;9.95;;;1.98;;
72065;SDS011;59939;52.516;13.420;2023-08-07T21:00:40;6.43;;;2.40;;
72065;SDS011;59939;52.516;13.420;2023-08-07T21:03:46;11.68;;;1.85;;
72065;SDS011;59939;52.516;13.420;2023-08-07T21:06:57;6.82;;;1.80;;
72065;SDS011;59939;52.516;13.420;2023-08-07T21:10:15;5.97;;;1.85;;
72065;SDS011;59939;52.516;13.420;2023-08-07T21:13:21;6.75;;;2.05;;
72065;SDS011;59939;52.516;13.420;2023-08-07T21:19:55;10.48;;;1.92;;
72065;SDS011;59939;52.516;13.420;2023-08-07T21:22:58;3.15;;;1.45;;
72065;SDS011;59939;52.516;13.420;2023-08-07T21:26:02;8.15;;;2.28;;
72065;SDS011;59939;52.516;13.420;2023-08-07T21:29:08;7.63;;;2.20;;
72065;SDS011;59939;52.516;13.420;2023-08-07T21:32:14;5.93;;;2.20;;
72065;SDS011;59939;52.516;13.420;2023-08-07T21:35:21;8.77;;;2.75;;
72065;SDS011;59939;52.516;13.420;2023-08-07T21:38:24;8.80;;;1.60;;
72065;SDS011;59939;52.516;13.420;2023-08-07T21:41:28;4.38;;;1.83;;
72065;SDS011;59939;52.516;13.420;2023-08-07T21:44:32;9.52;;;3.53;;